sensor_id;sensor_type;location;lat;lon;timestamp;P1;durP1;ratioP1;P2;durP2;ratioP2
12577;SDS011;6354;51.026;8.968;2022-07-29T00:00:59;6.45;;;2.63;;
12577;SDS011;6354;51.026;8.968;2022-07-29T00:03:28;6.70;;;2.53;;
12577;SDS011;6354;51.026;8.968;2022-07-29T00:05:56;4.43;;;2.30;;
12577;SDS011;6354;51.026;8.968;2022-07-29T00:08:26;5.30;;;2.60;;
12577;SDS011;6354;51.026;8.968;2022-07-29T00:10:55;5.13;;;2.10;;
12577;SDS011;6354;51.026;8.968;2022-07-29T00:13:23;6.53;;;2.60;;
12577;SDS011;6354;51.026;8.968;2022-07-29T00:15:58;5.63;;;2.35;;
12577;SDS011;6354;51.026;8.968;2022-07-29T00:18:30;6.15;;;2.72;;
12577;SDS011;6354;51.026;8.968;2022-07-29T00:20:58;3.97;;;2.42;;
12577;SDS011;6354;51.026;8.968;2022-07-29T00:23:26;5.72;;;2.50;;
12577;SDS011;6354;51.026;8.968;2022-07-29T00:25:58;5.55;;;2.40;;
12577;SDS011;6354;51.026;8.968;2022-07-29T00:28:26;6.03;;;2.55;;
12577;SDS011;6354;51.026;8.968;2022-07-29T00:30:54;6.85;;;2.80;;
12577;SDS011;6354;51.026;8.968;2022-07-29T00:33:22;8.73;;;2.90;;
12577;SDS011;6354;51.026;8.968;2022-07-29T00:35:50;4.05;;;2.40;;
12577;SDS011;6354;51.026;8.968;2022-07-29T00:38:18;5.75;;;2.28;;
12577;SDS011;6354;51.026;8.968;2022-07-29T00:40:47;7.10;;;2.80;;
12577;SDS011;6354;51.026;8.968;2022-07-29T00:43:16;7.25;;;2.47;;
12577;SDS011;6354;51.026;8.968;2022-07-29T00:45:45;7.50;;;2.72;;
12577;SDS011;6354;51.026;8.968;2022-07-29T00:48:13;5.47;;;2.10;;
12577;SDS011;6354;51.026;8.968;2022-07-29T00:50:41;8.60;;;2.58;;
12577;SDS011;6354;51.026;8.968;2022-07-29T00:53:10;3.70;;;2.25;;
12577;SDS011;6354;51.026;8.968;2022-07-29T00:55:39;4.20;;;2.33;;
12577;SDS011;6354;51.026;8.968;2022-07-29T00:58:07;6.10;;;2.55;;
12577;SDS011;6354;51.026;8.968;2022-07-29T01:00:40;9.13;;;2.65;;
12577;SDS011;6354;51.026;8.968;2022-07-29T01:03:10;3.92;;;2.40;;
12577;SDS011;6354;51.026;8.968;2022-07-29T01:05:38;6.80;;;2.40;;
12577;SDS011;6354;51.026;8.968;2022-07-29T01:08:16;6.22;;;2.40;;
12577;SDS011;6354;51.026;8.968;2022-07-29T01:10:46;9.02;;;2.63;;
12577;SDS011;6354;51.026;8.968;2022-07-29T01:13:15;5.65;;;2.40;;
12577;SDS011;6354;51.026;8.968;2022-07-29T01:15:45;6.38;;;2.80;;
12577;SDS011;6354;51.026;8.968;2022-07-29T01:18:20;5.60;;;2.63;;
12577;SDS011;6354;51.026;8.968;2022-07-29T01:20:58;7.20;;;2.97;;
12577;SDS011;6354;51.026;8.968;2022-07-29T01:23:57;5.75;;;2.70;;
12577;SDS011;6354;51.026;8.968;2022-07-29T01:26:42;6.15;;;2.38;;
12577;SDS011;6354;51.026;8.968;2022-07-29T01:29:18;3.17;;;2.05;;
12577;SDS011;6354;51.026;8.968;2022-07-29T01:32:05;5.68;;;2.40;;
12577;SDS011;6354;51.026;8.968;2022-07-29T01:34:55;2.58;;;2.17;;
12577;SDS011;6354;51.026;8.968;2022-07-29T01:37:32;3.75;;;2.20;;
12577;SDS011;6354;51.026;8.968;2022-07-29T01:40:05;5.43;;;2.50;;
12577;SDS011;6354;51.026;8.968;2022-07-29T01:42:42;4.53;;;2.42;;
12577;SDS011;6354;51.026;8.968;2022-07-29T01:45:14;4.00;;;2.28;;
12577;SDS011;6354;51.026;8.968;2022-07-29T01:47:46;5.07;;;2.35;;
12577;SDS011;6354;51.026;8.968;2022-07-29T01:50:20;5.28;;;2.30;;
12577;SDS011;6354;51.026;8.968;2022-07-29T01:52:54;6.70;;;2.63;;
12577;SDS011;6354;51.026;8.968;2022-07-29T01:55:29;4.30;;;2.30;;
12577;SDS011;6354;51.026;8.968;2022-07-29T01:58:01;5.95;;;2.65;;
12577;SDS011;6354;51.026;8.968;2022-07-29T02:00:33;2.88;;;2.00;;
12577;SDS011;6354;51.026;8.968;2022-07-29T02:03:04;5.75;;;2.50;;
12577;SDS011;6354;51.026;8.968;2022-07-29T02:05:36;5.55;;;2.30;;
12577;SDS011;6354;51.026;8.968;2022-07-29T02:08:06;5.63;;;2.40;;
12577;SDS011;6354;51.026;8.968;2022-07-29T02:10:36;6.80;;;2.63;;
12577;SDS011;6354;51.026;8.968;2022-07-29T02:13:07;4.15;;;2.00;;
12577;SDS011;6354;51.026;8.968;2022-07-29T02:15:38;3.38;;;2.22;;
12577;SDS011;6354;51.026;8.968;2022-07-29T02:18:09;5.97;;;2.25;;
12577;SDS011;6354;51.026;8.968;2022-07-29T02:20:42;6.40;;;2.42;;
12577;SDS011;6354;51.026;8.968;2022-07-29T02:23:13;5.47;;;2.30;;
12577;SDS011;6354;51.026;8.968;2022-07-29T02:25:45;4.00;;;2.25;;
12577;SDS011;6354;51.026;8.968;2022-07-29T02:28:17;4.90;;;2.65;;
12577;SDS011;6354;51.026;8.968;2022-07-29T02:30:48;8.20;;;2.30;;
12577;SDS011;6354;51.026;8.968;2022-07-29T02:33:19;4.70;;;2.15;;
12577;SDS011;6354;51.026;8.968;2022-07-29T02:35:48;3.25;;;2.00;;
12577;SDS011;6354;51.026;8.968;2022-07-29T02:38:17;5.80;;;2.33;;
12577;SDS011;6354;51.026;8.968;2022-07-29T02:41:05;5.72;;;2.47;;
12577;SDS011;6354;51.026;8.968;2022-07-29T02:43:37;4.03;;;2.03;;
12577;SDS011;6354;51.026;8.968;2022-07-29T02:46:08;5.07;;;2.20;;
12577;SDS011;6354;51.026;8.968;2022-07-29T02:48:55;3.03;;;2.20;;
12577;SDS011;6354;51.026;8.968;2022-07-29T02:51:32;4.50;;;2.42;;
12577;SDS011;6354;51.026;8.968;2022-07-29T02:54:10;7.22;;;2.60;;
12577;SDS011;6354;51.026;8.968;2022-07-29T02:56:45;3.58;;;2.30;;
12577;SDS011;6354;51.026;8.968;2022-07-29T02:59:15;6.55;;;2.85;;
12577;SDS011;6354;51.026;8.968;2022-07-29T03:01:50;7.82;;;2.40;;
12577;SDS011;6354;51.026;8.968;2022-07-29T03:04:19;7.38;;;2.65;;
12577;SDS011;6354;51.026;8.968;2022-07-29T03:06:49;8.60;;;2.50;;
12577;SDS011;6354;51.026;8.968;2022-07-29T03:09:19;4.97;;;2.42;;
12577;SDS011;6354;51.026;8.968;2022-07-29T03:11:49;4.65;;;2.20;;
12577;SDS011;6354;51.026;8.968;2022-07-29T03:14:17;6.70;;;2.45;;
12577;SDS011;6354;51.026;8.968;2022-07-29T03:16:47;4.03;;;2.30;;
12577;SDS011;6354;51.026;8.968;2022-07-29T03:19:17;5.55;;;2.30;;
12577;SDS011;6354;51.026;8.968;2022-07-29T03:21:46;4.68;;;2.15;;
12577;SDS011;6354;51.026;8.968;2022-07-29T03:24:24;4.97;;;1.98;;
12577;SDS011;6354;51.026;8.968;2022-07-29T03:26:54;8.50;;;2.58;;
12577;SDS011;6354;51.026;8.968;2022-07-29T03:29:22;4.40;;;2.10;;
12577;SDS011;6354;51.026;8.968;2022-07-29T03:31:59;6.53;;;2.30;;
12577;SDS011;6354;51.026;8.968;2022-07-29T03:34:35;3.55;;;2.13;;
12577;SDS011;6354;51.026;8.968;2022-07-29T03:37:04;3.80;;;2.08;;
12577;SDS011;6354;51.026;8.968;2022-07-29T03:39:34;4.15;;;2.50;;
12577;SDS011;6354;51.026;8.968;2022-07-29T03:42:05;6.45;;;2.35;;
12577;SDS011;6354;51.026;8.968;2022-07-29T03:44:36;4.28;;;2.42;;
12577;SDS011;6354;51.026;8.968;2022-07-29T03:47:06;6.65;;;2.60;;
12577;SDS011;6354;51.026;8.968;2022-07-29T03:49:38;8.07;;;2.42;;
12577;SDS011;6354;51.026;8.968;2022-07-29T03:52:07;6.75;;;2.60;;
12577;SDS011;6354;51.026;8.968;2022-07-29T03:54:36;5.05;;;2.42;;
12577;SDS011;6354;51.026;8.968;2022-07-29T03:57:04;6.15;;;2.50;;
12577;SDS011;6354;51.026;8.968;2022-07-29T03:59:34;4.68;;;2.33;;
12577;SDS011;6354;51.026;8.968;2022-07-29T04:02:03;14.07;;;3.00;;
12577;SDS011;6354;51.026;8.968;2022-07-29T04:04:32;7.03;;;2.58;;
12577;SDS011;6354;51.026;8.968;2022-07-29T04:07:02;6.05;;;2.33;;
12577;SDS011;6354;51.026;8.968;2022-07-29T04:09:30;6.70;;;2.35;;
12577;SDS011;6354;51.026;8.968;2022-07-29T04:11:58;5.07;;;2.35;;
12577;SDS011;6354;51.026;8.968;2022-07-29T04:14:39;5.93;;;2.60;;
12577;SDS011;6354;51.026;8.968;2022-07-29T04:17:14;4.78;;;2.60;;
12577;SDS011;6354;51.026;8.968;2022-07-29T04:19:42;2.95;;;2.20;;
12577;SDS011;6354;51.026;8.968;2022-07-29T04:22:11;6.22;;;2.25;;
12577;SDS011;6354;51.026;8.968;2022-07-29T04:24:39;6.90;;;2.30;;
12577;SDS011;6354;51.026;8.968;2022-07-29T04:27:09;5.25;;;2.13;;
12577;SDS011;6354;51.026;8.968;2022-07-29T04:29:37;8.15;;;2.38;;
12577;SDS011;6354;51.026;8.968;2022-07-29T04:32:22;5.63;;;2.10;;
12577;SDS011;6354;51.026;8.968;2022-07-29T04:34:50;5.55;;;2.17;;
12577;SDS011;6354;51.026;8.968;2022-07-29T04:37:20;3.08;;;2.03;;
12577;SDS011;6354;51.026;8.968;2022-07-29T04:39:48;3.85;;;2.25;;
12577;SDS011;6354;51.026;8.968;2022-07-29T04:42:16;7.18;;;2.08;;
12577;SDS011;6354;51.026;8.968;2022-07-29T04:44:52;4.30;;;2.22;;
12577;SDS011;6354;51.026;8.968;2022-07-29T04:47:21;6.63;;;2.50;;
12577;SDS011;6354;51.026;8.968;2022-07-29T04:49:49;4.82;;;2.10;;
12577;SDS011;6354;51.026;8.968;2022-07-29T04:52:17;7.13;;;2.50;;
12577;SDS011;6354;51.026;8.968;2022-07-29T04:54:46;8.07;;;2.08;;
12577;SDS011;6354;51.026;8.968;2022-07-29T04:57:14;5.95;;;1.92;;
12577;SDS011;6354;51.026;8.968;2022-07-29T04:59:42;4.70;;;2.40;;
12577;SDS011;6354;51.026;8.968;2022-07-29T05:02:11;6.22;;;2.05;;
12577;SDS011;6354;51.026;8.968;2022-07-29T05:04:39;4.82;;;2.00;;
12577;SDS011;6354;51.026;8.968;2022-07-29T05:07:07;4.10;;;2.33;;
12577;SDS011;6354;51.026;8.968;2022-07-29T05:09:35;4.55;;;2.42;;
12577;SDS011;6354;51.026;8.968;2022-07-29T05:12:04;6.43;;;2.05;;
12577;SDS011;6354;51.026;8.968;2022-07-29T05:14:33;4.53;;;2.00;;
12577;SDS011;6354;51.026;8.968;2022-07-29T05:17:01;3.45;;;2.08;;
12577;SDS011;6354;51.026;8.968;2022-07-29T05:19:29;4.75;;;2.20;;
12577;SDS011;6354;51.026;8.968;2022-07-29T05:21:58;4.03;;;2.30;;
12577;SDS011;6354;51.026;8.968;2022-07-29T05:24:26;4.45;;;2.13;;
12577;SDS011;6354;51.026;8.968;2022-07-29T05:26:54;5.40;;;2.13;;
12577;SDS011;6354;51.026;8.968;2022-07-29T05:29:24;5.10;;;2.13;;
12577;SDS011;6354;51.026;8.968;2022-07-29T05:32:10;3.10;;;2.00;;
12577;SDS011;6354;51.026;8.968;2022-07-29T05:34:39;4.90;;;2.45;;
12577;SDS011;6354;51.026;8.968;2022-07-29T05:37:16;5.57;;;2.30;;
12577;SDS011;6354;51.026;8.968;2022-07-29T05:39:45;5.43;;;2.45;;
12577;SDS011;6354;51.026;8.968;2022-07-29T05:42:22;4.53;;;2.58;;
12577;SDS011;6354;51.026;8.968;2022-07-29T05:44:51;3.42;;;2.30;;
12577;SDS011;6354;51.026;8.968;2022-07-29T05:47:20;8.02;;;2.30;;
12577;SDS011;6354;51.026;8.968;2022-07-29T05:49:48;6.68;;;2.58;;
12577;SDS011;6354;51.026;8.968;2022-07-29T05:52:16;8.90;;;2.30;;
12577;SDS011;6354;51.026;8.968;2022-07-29T05:54:45;6.45;;;2.78;;
12577;SDS011;6354;51.026;8.968;2022-07-29T05:57:15;4.95;;;2.30;;
12577;SDS011;6354;51.026;8.968;2022-07-29T05:59:44;7.53;;;2.45;;
12577;SDS011;6354;51.026;8.968;2022-07-29T06:02:13;4.93;;;2.63;;
12577;SDS011;6354;51.026;8.968;2022-07-29T06:04:42;6.00;;;2.33;;
12577;SDS011;6354;51.026;8.968;2022-07-29T06:07:11;4.05;;;2.30;;
12577;SDS011;6354;51.026;8.968;2022-07-29T06:09:39;4.68;;;2.20;;
12577;SDS011;6354;51.026;8.968;2022-07-29T06:12:07;4.43;;;2.45;;
12577;SDS011;6354;51.026;8.968;2022-07-29T06:14:35;8.27;;;2.70;;
12577;SDS011;6354;51.026;8.968;2022-07-29T06:17:04;5.35;;;2.55;;
12577;SDS011;6354;51.026;8.968;2022-07-29T06:19:34;7.75;;;2.60;;
12577;SDS011;6354;51.026;8.968;2022-07-29T06:22:03;7.53;;;2.90;;
12577;SDS011;6354;51.026;8.968;2022-07-29T06:24:31;4.45;;;2.50;;
12577;SDS011;6354;51.026;8.968;2022-07-29T06:26:59;5.25;;;3.03;;
12577;SDS011;6354;51.026;8.968;2022-07-29T06:29:27;3.78;;;2.47;;
12577;SDS011;6354;51.026;8.968;2022-07-29T06:31:55;7.75;;;2.70;;
12577;SDS011;6354;51.026;8.968;2022-07-29T06:34:23;4.65;;;3.00;;
12577;SDS011;6354;51.026;8.968;2022-07-29T06:36:53;5.47;;;2.92;;
12577;SDS011;6354;51.026;8.968;2022-07-29T06:39:21;6.72;;;3.05;;
12577;SDS011;6354;51.026;8.968;2022-07-29T06:41:49;9.00;;;3.40;;
12577;SDS011;6354;51.026;8.968;2022-07-29T06:44:18;7.03;;;3.75;;
12577;SDS011;6354;51.026;8.968;2022-07-29T06:46:46;5.78;;;3.33;;
12577;SDS011;6354;51.026;8.968;2022-07-29T06:49:15;6.90;;;2.92;;
12577;SDS011;6354;51.026;8.968;2022-07-29T06:51:43;6.05;;;3.30;;
12577;SDS011;6354;51.026;8.968;2022-07-29T06:54:13;6.35;;;3.30;;
12577;SDS011;6354;51.026;8.968;2022-07-29T06:56:44;6.95;;;3.35;;
12577;SDS011;6354;51.026;8.968;2022-07-29T06:59:13;6.80;;;3.03;;
12577;SDS011;6354;51.026;8.968;2022-07-29T07:01:41;6.82;;;3.33;;
12577;SDS011;6354;51.026;8.968;2022-07-29T07:04:10;5.60;;;3.00;;
12577;SDS011;6354;51.026;8.968;2022-07-29T07:06:40;5.07;;;2.90;;
12577;SDS011;6354;51.026;8.968;2022-07-29T07:09:08;5.05;;;2.90;;
12577;SDS011;6354;51.026;8.968;2022-07-29T07:11:37;5.68;;;3.22;;
12577;SDS011;6354;51.026;8.968;2022-07-29T07:14:05;3.95;;;3.00;;
12577;SDS011;6354;51.026;8.968;2022-07-29T07:16:34;4.82;;;3.38;;
12577;SDS011;6354;51.026;8.968;2022-07-29T07:19:02;5.28;;;3.50;;
12577;SDS011;6354;51.026;8.968;2022-07-29T07:21:30;6.68;;;3.30;;
12577;SDS011;6354;51.026;8.968;2022-07-29T07:24:01;9.18;;;3.13;;
12577;SDS011;6354;51.026;8.968;2022-07-29T07:26:29;5.38;;;2.78;;
12577;SDS011;6354;51.026;8.968;2022-07-29T07:28:58;5.85;;;2.90;;
12577;SDS011;6354;51.026;8.968;2022-07-29T07:31:26;5.47;;;3.15;;
12577;SDS011;6354;51.026;8.968;2022-07-29T07:33:55;6.22;;;3.40;;
12577;SDS011;6354;51.026;8.968;2022-07-29T07:36:23;6.43;;;3.33;;
12577;SDS011;6354;51.026;8.968;2022-07-29T07:38:51;6.82;;;3.08;;
12577;SDS011;6354;51.026;8.968;2022-07-29T07:41:19;6.07;;;3.50;;
12577;SDS011;6354;51.026;8.968;2022-07-29T07:43:47;5.43;;;3.33;;
12577;SDS011;6354;51.026;8.968;2022-07-29T07:46:17;8.60;;;3.28;;
12577;SDS011;6354;51.026;8.968;2022-07-29T07:48:45;6.13;;;3.50;;
12577;SDS011;6354;51.026;8.968;2022-07-29T07:51:14;8.63;;;3.60;;
12577;SDS011;6354;51.026;8.968;2022-07-29T07:53:42;4.18;;;3.00;;
12577;SDS011;6354;51.026;8.968;2022-07-29T07:56:10;4.55;;;3.05;;
12577;SDS011;6354;51.026;8.968;2022-07-29T07:58:38;5.90;;;3.28;;
12577;SDS011;6354;51.026;8.968;2022-07-29T08:01:07;3.42;;;3.00;;
12577;SDS011;6354;51.026;8.968;2022-07-29T08:03:36;4.80;;;3.22;;
12577;SDS011;6354;51.026;8.968;2022-07-29T08:06:05;5.38;;;2.75;;
12577;SDS011;6354;51.026;8.968;2022-07-29T08:08:33;5.38;;;3.30;;
12577;SDS011;6354;51.026;8.968;2022-07-29T08:11:01;5.50;;;3.10;;
12577;SDS011;6354;51.026;8.968;2022-07-29T08:13:35;4.65;;;3.20;;
12577;SDS011;6354;51.026;8.968;2022-07-29T08:16:05;4.55;;;3.17;;
12577;SDS011;6354;51.026;8.968;2022-07-29T08:18:43;4.35;;;3.05;;
12577;SDS011;6354;51.026;8.968;2022-07-29T08:21:13;5.80;;;3.45;;
12577;SDS011;6354;51.026;8.968;2022-07-29T08:23:42;5.57;;;3.28;;
12577;SDS011;6354;51.026;8.968;2022-07-29T08:26:25;5.05;;;3.38;;
12577;SDS011;6354;51.026;8.968;2022-07-29T08:28:53;5.05;;;3.20;;
12577;SDS011;6354;51.026;8.968;2022-07-29T08:31:21;5.78;;;3.35;;
12577;SDS011;6354;51.026;8.968;2022-07-29T08:33:50;5.82;;;3.42;;
12577;SDS011;6354;51.026;8.968;2022-07-29T08:36:18;4.93;;;3.28;;
12577;SDS011;6354;51.026;8.968;2022-07-29T08:38:48;4.00;;;3.60;;
12577;SDS011;6354;51.026;8.968;2022-07-29T08:41:17;4.80;;;3.40;;
12577;SDS011;6354;51.026;8.968;2022-07-29T08:43:46;5.15;;;3.70;;
12577;SDS011;6354;51.026;8.968;2022-07-29T08:46:14;5.25;;;3.45;;
12577;SDS011;6354;51.026;8.968;2022-07-29T08:48:43;4.07;;;3.45;;
12577;SDS011;6354;51.026;8.968;2022-07-29T08:51:14;7.05;;;3.80;;
12577;SDS011;6354;51.026;8.968;2022-07-29T08:53:43;5.28;;;3.95;;
12577;SDS011;6354;51.026;8.968;2022-07-29T08:56:14;5.05;;;3.83;;
12577;SDS011;6354;51.026;8.968;2022-07-29T08:58:44;5.93;;;3.85;;
12577;SDS011;6354;51.026;8.968;2022-07-29T09:01:21;4.80;;;3.80;;
12577;SDS011;6354;51.026;8.968;2022-07-29T09:04:04;5.35;;;3.35;;
12577;SDS011;6354;51.026;8.968;2022-07-29T09:06:39;6.50;;;3.95;;
12577;SDS011;6354;51.026;8.968;2022-07-29T09:09:10;7.45;;;3.78;;
12577;SDS011;6354;51.026;8.968;2022-07-29T09:11:38;5.03;;;3.40;;
12577;SDS011;6354;51.026;8.968;2022-07-29T09:14:06;5.68;;;4.00;;
12577;SDS011;6354;51.026;8.968;2022-07-29T09:16:48;6.93;;;3.63;;
12577;SDS011;6354;51.026;8.968;2022-07-29T09:19:21;6.68;;;3.67;;
12577;SDS011;6354;51.026;8.968;2022-07-29T09:21:52;5.00;;;3.33;;
12577;SDS011;6354;51.026;8.968;2022-07-29T09:24:42;5.97;;;3.92;;
12577;SDS011;6354;51.026;8.968;2022-07-29T09:27:17;8.68;;;3.97;;
12577;SDS011;6354;51.026;8.968;2022-07-29T09:29:55;6.88;;;3.58;;
12577;SDS011;6354;51.026;8.968;2022-07-29T09:32:24;4.55;;;3.30;;
12577;SDS011;6354;51.026;8.968;2022-07-29T09:37:43;4.63;;;3.17;;
12577;SDS011;6354;51.026;8.968;2022-07-29T09:40:13;3.95;;;3.10;;
12577;SDS011;6354;51.026;8.968;2022-07-29T09:42:43;3.85;;;2.75;;
12577;SDS011;6354;51.026;8.968;2022-07-29T09:45:12;6.45;;;3.20;;
12577;SDS011;6354;51.026;8.968;2022-07-29T09:47:52;3.22;;;2.78;;
12577;SDS011;6354;51.026;8.968;2022-07-29T09:50:23;7.03;;;3.38;;
12577;SDS011;6354;51.026;8.968;2022-07-29T09:53:03;6.97;;;3.13;;
12577;SDS011;6354;51.026;8.968;2022-07-29T09:55:32;5.78;;;3.33;;
12577;SDS011;6354;51.026;8.968;2022-07-29T09:58:14;6.30;;;3.20;;
12577;SDS011;6354;51.026;8.968;2022-07-29T10:00:43;3.92;;;2.75;;
12577;SDS011;6354;51.026;8.968;2022-07-29T10:03:13;5.38;;;2.90;;
12577;SDS011;6354;51.026;8.968;2022-07-29T10:05:42;5.93;;;3.10;;
12577;SDS011;6354;51.026;8.968;2022-07-29T10:08:12;5.43;;;2.85;;
12577;SDS011;6354;51.026;8.968;2022-07-29T10:10:41;4.72;;;2.85;;
12577;SDS011;6354;51.026;8.968;2022-07-29T10:13:11;6.05;;;3.05;;
12577;SDS011;6354;51.026;8.968;2022-07-29T10:15:42;7.07;;;3.10;;
12577;SDS011;6354;51.026;8.968;2022-07-29T10:18:13;3.97;;;2.80;;
12577;SDS011;6354;51.026;8.968;2022-07-29T10:20:43;5.43;;;3.22;;
12577;SDS011;6354;51.026;8.968;2022-07-29T10:23:13;4.05;;;2.80;;
12577;SDS011;6354;51.026;8.968;2022-07-29T10:25:41;4.32;;;3.10;;
12577;SDS011;6354;51.026;8.968;2022-07-29T10:28:12;4.80;;;3.00;;
12577;SDS011;6354;51.026;8.968;2022-07-29T10:30:42;4.88;;;3.05;;
12577;SDS011;6354;51.026;8.968;2022-07-29T10:33:18;7.50;;;3.50;;
12577;SDS011;6354;51.026;8.968;2022-07-29T10:36:10;5.03;;;3.10;;
12577;SDS011;6354;51.026;8.968;2022-07-29T10:38:53;5.63;;;3.20;;
12577;SDS011;6354;51.026;8.968;2022-07-29T10:41:32;6.10;;;3.22;;
12577;SDS011;6354;51.026;8.968;2022-07-29T10:44:12;4.93;;;3.30;;
12577;SDS011;6354;51.026;8.968;2022-07-29T10:46:48;3.63;;;3.10;;
12577;SDS011;6354;51.026;8.968;2022-07-29T10:49:18;4.35;;;3.10;;
12577;SDS011;6354;51.026;8.968;2022-07-29T10:51:51;4.22;;;3.13;;
12577;SDS011;6354;51.026;8.968;2022-07-29T10:57:21;8.45;;;3.15;;
12577;SDS011;6354;51.026;8.968;2022-07-29T11:00:31;6.35;;;3.20;;
12577;SDS011;6354;51.026;8.968;2022-07-29T11:03:01;6.72;;;2.92;;
12577;SDS011;6354;51.026;8.968;2022-07-29T11:05:51;5.35;;;3.08;;
12577;SDS011;6354;51.026;8.968;2022-07-29T11:08:24;7.03;;;3.40;;
12577;SDS011;6354;51.026;8.968;2022-07-29T11:13:58;6.85;;;3.05;;
12577;SDS011;6354;51.026;8.968;2022-07-29T11:16:30;4.50;;;3.00;;
12577;SDS011;6354;51.026;8.968;2022-07-29T11:19:49;6.20;;;3.00;;
12577;SDS011;6354;51.026;8.968;2022-07-29T11:22:31;5.72;;;3.03;;
12577;SDS011;6354;51.026;8.968;2022-07-29T11:27:44;4.75;;;3.00;;
12577;SDS011;6354;51.026;8.968;2022-07-29T11:30:14;4.97;;;3.00;;
12577;SDS011;6354;51.026;8.968;2022-07-29T11:32:43;5.45;;;3.60;;
12577;SDS011;6354;51.026;8.968;2022-07-29T11:35:15;3.92;;;3.15;;
12577;SDS011;6354;51.026;8.968;2022-07-29T11:38:23;5.72;;;3.55;;
12577;SDS011;6354;51.026;8.968;2022-07-29T11:43:52;4.70;;;3.20;;
12577;SDS011;6354;51.026;8.968;2022-07-29T11:49:18;5.53;;;3.50;;
12577;SDS011;6354;51.026;8.968;2022-07-29T11:51:58;5.07;;;3.25;;
12577;SDS011;6354;51.026;8.968;2022-07-29T11:54:30;6.72;;;3.72;;
12577;SDS011;6354;51.026;8.968;2022-07-29T11:57:19;5.63;;;3.10;;
12577;SDS011;6354;51.026;8.968;2022-07-29T12:00:03;5.50;;;3.47;;
12577;SDS011;6354;51.026;8.968;2022-07-29T12:02:39;5.55;;;3.47;;
12577;SDS011;6354;51.026;8.968;2022-07-29T12:05:14;4.57;;;3.13;;
12577;SDS011;6354;51.026;8.968;2022-07-29T12:08:12;4.18;;;3.17;;
12577;SDS011;6354;51.026;8.968;2022-07-29T12:10:42;4.90;;;3.20;;
12577;SDS011;6354;51.026;8.968;2022-07-29T12:13:13;3.88;;;3.00;;
12577;SDS011;6354;51.026;8.968;2022-07-29T12:15:42;6.00;;;3.30;;
12577;SDS011;6354;51.026;8.968;2022-07-29T12:18:21;5.60;;;3.17;;
12577;SDS011;6354;51.026;8.968;2022-07-29T12:20:56;4.55;;;2.97;;
12577;SDS011;6354;51.026;8.968;2022-07-29T12:23:29;5.78;;;3.50;;
12577;SDS011;6354;51.026;8.968;2022-07-29T12:26:00;7.32;;;3.60;;
12577;SDS011;6354;51.026;8.968;2022-07-29T12:28:36;4.45;;;2.90;;
12577;SDS011;6354;51.026;8.968;2022-07-29T12:31:05;4.95;;;3.25;;
12577;SDS011;6354;51.026;8.968;2022-07-29T12:33:35;5.97;;;3.35;;
12577;SDS011;6354;51.026;8.968;2022-07-29T12:36:03;3.60;;;3.30;;
12577;SDS011;6354;51.026;8.968;2022-07-29T12:38:33;5.25;;;3.00;;
12577;SDS011;6354;51.026;8.968;2022-07-29T12:41:02;6.15;;;3.05;;
12577;SDS011;6354;51.026;8.968;2022-07-29T12:43:30;5.35;;;3.50;;
12577;SDS011;6354;51.026;8.968;2022-07-29T12:46:10;4.43;;;3.55;;
12577;SDS011;6354;51.026;8.968;2022-07-29T12:48:41;6.40;;;3.00;;
12577;SDS011;6354;51.026;8.968;2022-07-29T12:51:11;3.85;;;3.53;;
12577;SDS011;6354;51.026;8.968;2022-07-29T12:53:40;5.60;;;3.25;;
12577;SDS011;6354;51.026;8.968;2022-07-29T12:56:14;4.30;;;3.20;;
12577;SDS011;6354;51.026;8.968;2022-07-29T12:59:10;4.75;;;3.30;;
12577;SDS011;6354;51.026;8.968;2022-07-29T13:01:39;4.78;;;3.30;;
12577;SDS011;6354;51.026;8.968;2022-07-29T13:04:09;3.45;;;3.00;;
12577;SDS011;6354;51.026;8.968;2022-07-29T13:06:38;4.00;;;3.30;;
12577;SDS011;6354;51.026;8.968;2022-07-29T13:09:12;5.45;;;3.60;;
12577;SDS011;6354;51.026;8.968;2022-07-29T13:11:41;4.75;;;3.72;;
12577;SDS011;6354;51.026;8.968;2022-07-29T13:14:31;4.97;;;3.50;;
12577;SDS011;6354;51.026;8.968;2022-07-29T13:17:01;6.15;;;3.30;;
12577;SDS011;6354;51.026;8.968;2022-07-29T13:19:34;6.20;;;3.88;;
12577;SDS011;6354;51.026;8.968;2022-07-29T13:22:04;5.35;;;3.40;;
12577;SDS011;6354;51.026;8.968;2022-07-29T13:24:32;4.53;;;3.10;;
12577;SDS011;6354;51.026;8.968;2022-07-29T13:27:00;4.63;;;3.42;;
12577;SDS011;6354;51.026;8.968;2022-07-29T13:29:31;6.30;;;3.28;;
12577;SDS011;6354;51.026;8.968;2022-07-29T13:31:59;3.95;;;3.17;;
12577;SDS011;6354;51.026;8.968;2022-07-29T13:34:27;3.88;;;3.35;;
12577;SDS011;6354;51.026;8.968;2022-07-29T13:36:57;3.75;;;3.22;;
12577;SDS011;6354;51.026;8.968;2022-07-29T13:39:25;4.65;;;3.28;;
12577;SDS011;6354;51.026;8.968;2022-07-29T13:41:53;5.43;;;3.10;;
12577;SDS011;6354;51.026;8.968;2022-07-29T13:44:22;4.43;;;3.40;;
12577;SDS011;6354;51.026;8.968;2022-07-29T13:46:51;4.82;;;3.30;;
12577;SDS011;6354;51.026;8.968;2022-07-29T13:49:19;4.40;;;3.50;;
12577;SDS011;6354;51.026;8.968;2022-07-29T13:51:47;3.75;;;3.33;;
12577;SDS011;6354;51.026;8.968;2022-07-29T13:54:17;4.38;;;3.50;;
12577;SDS011;6354;51.026;8.968;2022-07-29T13:56:45;5.07;;;3.47;;
12577;SDS011;6354;51.026;8.968;2022-07-29T13:59:13;5.40;;;3.30;;
12577;SDS011;6354;51.026;8.968;2022-07-29T14:01:41;5.15;;;3.60;;
12577;SDS011;6354;51.026;8.968;2022-07-29T14:04:10;3.50;;;3.20;;
12577;SDS011;6354;51.026;8.968;2022-07-29T14:06:39;5.53;;;3.80;;
12577;SDS011;6354;51.026;8.968;2022-07-29T14:09:07;4.18;;;3.30;;
12577;SDS011;6354;51.026;8.968;2022-07-29T14:11:37;3.80;;;3.05;;
12577;SDS011;6354;51.026;8.968;2022-07-29T14:14:05;7.70;;;3.60;;
12577;SDS011;6354;51.026;8.968;2022-07-29T14:16:34;5.05;;;3.45;;
12577;SDS011;6354;51.026;8.968;2022-07-29T14:19:08;4.10;;;3.38;;
12577;SDS011;6354;51.026;8.968;2022-07-29T14:21:37;4.07;;;2.97;;
12577;SDS011;6354;51.026;8.968;2022-07-29T14:24:06;4.07;;;3.40;;
12577;SDS011;6354;51.026;8.968;2022-07-29T14:26:48;6.68;;;3.47;;
12577;SDS011;6354;51.026;8.968;2022-07-29T14:29:16;3.90;;;3.50;;
12577;SDS011;6354;51.026;8.968;2022-07-29T14:31:44;5.90;;;3.10;;
12577;SDS011;6354;51.026;8.968;2022-07-29T14:34:12;5.40;;;3.17;;
12577;SDS011;6354;51.026;8.968;2022-07-29T14:36:41;4.80;;;3.33;;
12577;SDS011;6354;51.026;8.968;2022-07-29T14:39:09;4.22;;;3.28;;
12577;SDS011;6354;51.026;8.968;2022-07-29T14:41:38;5.18;;;3.50;;
12577;SDS011;6354;51.026;8.968;2022-07-29T14:44:07;4.32;;;3.40;;
12577;SDS011;6354;51.026;8.968;2022-07-29T14:46:35;7.32;;;3.65;;
12577;SDS011;6354;51.026;8.968;2022-07-29T14:49:03;7.55;;;3.42;;
12577;SDS011;6354;51.026;8.968;2022-07-29T14:51:34;7.25;;;3.60;;
12577;SDS011;6354;51.026;8.968;2022-07-29T14:54:05;7.43;;;3.53;;
12577;SDS011;6354;51.026;8.968;2022-07-29T14:56:33;3.50;;;3.20;;
12577;SDS011;6354;51.026;8.968;2022-07-29T14:59:03;5.05;;;3.53;;
12577;SDS011;6354;51.026;8.968;2022-07-29T15:01:33;4.55;;;3.47;;
12577;SDS011;6354;51.026;8.968;2022-07-29T15:04:02;6.88;;;3.55;;
12577;SDS011;6354;51.026;8.968;2022-07-29T15:06:30;7.30;;;3.92;;
12577;SDS011;6354;51.026;8.968;2022-07-29T15:08:59;5.22;;;3.25;;
12577;SDS011;6354;51.026;8.968;2022-07-29T15:11:28;5.25;;;3.38;;
12577;SDS011;6354;51.026;8.968;2022-07-29T15:14:03;6.03;;;3.60;;
12577;SDS011;6354;51.026;8.968;2022-07-29T15:16:32;4.43;;;3.70;;
12577;SDS011;6354;51.026;8.968;2022-07-29T15:19:02;3.92;;;3.40;;
12577;SDS011;6354;51.026;8.968;2022-07-29T15:21:30;3.88;;;3.33;;
12577;SDS011;6354;51.026;8.968;2022-07-29T15:23:59;4.18;;;3.75;;
12577;SDS011;6354;51.026;8.968;2022-07-29T15:26:27;5.00;;;3.40;;
12577;SDS011;6354;51.026;8.968;2022-07-29T15:28:55;4.82;;;3.53;;
12577;SDS011;6354;51.026;8.968;2022-07-29T15:31:24;5.07;;;3.70;;
12577;SDS011;6354;51.026;8.968;2022-07-29T15:33:54;4.72;;;3.45;;
12577;SDS011;6354;51.026;8.968;2022-07-29T15:36:26;5.90;;;3.78;;
12577;SDS011;6354;51.026;8.968;2022-07-29T15:39:14;7.18;;;3.53;;
12577;SDS011;6354;51.026;8.968;2022-07-29T15:41:42;6.60;;;3.63;;
12577;SDS011;6354;51.026;8.968;2022-07-29T15:44:10;5.40;;;3.45;;